ROMMA est une association bénévole à but non lucratif. Votre soutien est indispensable : ADHERER à ROMMA ou FAIRE un DON

Lélex - (01, Ain)

Jura Gessien (910 m)   Longitude: 5° 56' E   Latitude: 46° 18' N Station partenaire n°103
 

Détail journalier du     <<     >>

Température Precipitation Humidité Vent Dir Rafale Dir. rafale Ensol.
Heure (°C) (mm) (%) (km/h) (km/h) (min)
01:00 13.50842SSO13SO0
02:00 14.40812E15S0
03:00 14.60797SSO18SSO0
04:00 13.30822SSO13S0
05:00 12.60842SSE10SSE0
06:00 11.60911NE8ENE0
07:00 12.40892E11SSO0
08:00 13.60843SSO19SSO0
09:00 13.10854S18SSO0
10:00 14.40814SSO16S0
11:00 15.20789S23OSO0
12:00 16.907310SSO19S0
13:00 18.40679SSO21SSO0
14:00 19.406412SO26OSO0
15:00 20.306212SO27SO0
16:00 20.506011SO23SO0
17:00 20.106311SO23SO0
18:00 18.60688SO19OSO0
19:00 16.20764S10SSO0
20:00 14.40802SE6SE0
21:00 13.108505SSE0
22:00 11.70881ESE5E0
23:00 10.809105ESE0
minuit 9.909403ESE0

Graphique du 13-10-2019

 

Serveur OMMA